sensor_id;sensor_type;location;lat;lon;timestamp;P1;P2;P0
76679;PMS5003;65597;51.520;-0.224;2023-04-26T00:00:36;6;6;
76679;PMS5003;65597;51.520;-0.224;2023-04-26T00:03:02;5;4;
76679;PMS5003;65597;51.520;-0.224;2023-04-26T00:05:27;6;6;
76679;PMS5003;65597;51.520;-0.224;2023-04-26T00:07:52;5;5;
76679;PMS5003;65597;51.520;-0.224;2023-04-26T00:10:18;5;5;
76679;PMS5003;65597;51.520;-0.224;2023-04-26T00:12:43;5;5;
76679;PMS5003;65597;51.520;-0.224;2023-04-26T00:15:10;6;5;
76679;PMS5003;65597;51.520;-0.224;2023-04-26T00:17:34;5;5;
76679;PMS5003;65597;51.520;-0.224;2023-04-26T00:20:00;5;5;
76679;PMS5003;65597;51.520;-0.224;2023-04-26T00:22:25;7;6;
76679;PMS5003;65597;51.520;-0.224;2023-04-26T00:24:50;4;4;
76679;PMS5003;65597;51.520;-0.224;2023-04-26T00:27:16;10;7;
76679;PMS5003;65597;51.520;-0.224;2023-04-26T00:29:41;8;7;
76679;PMS5003;65597;51.520;-0.224;2023-04-26T00:32:07;5;5;
76679;PMS5003;65597;51.520;-0.224;2023-04-26T00:34:32;4;4;
76679;PMS5003;65597;51.520;-0.224;2023-04-26T00:36:58;10;8;
76679;PMS5003;65597;51.520;-0.224;2023-04-26T00:39:24;7;6;
76679;PMS5003;65597;51.520;-0.224;2023-04-26T00:41:48;7;6;
76679;PMS5003;65597;51.520;-0.224;2023-04-26T00:44:14;5;5;
76679;PMS5003;65597;51.520;-0.224;2023-04-26T00:46:39;8;6;
76679;PMS5003;65597;51.520;-0.224;2023-04-26T00:49:04;7;6;
76679;PMS5003;65597;51.520;-0.224;2023-04-26T00:51:31;6;6;
76679;PMS5003;65597;51.520;-0.224;2023-04-26T00:53:55;5;4;
76679;PMS5003;65597;51.520;-0.224;2023-04-26T00:56:21;7;7;
76679;PMS5003;65597;51.520;-0.224;2023-04-26T00:58:47;6;5;
76679;PMS5003;65597;51.520;-0.224;2023-04-26T01:01:12;7;5;
76679;PMS5003;65597;51.520;-0.224;2023-04-26T01:03:38;11;9;
76679;PMS5003;65597;51.520;-0.224;2023-04-26T01:06:03;8;8;
76679;PMS5003;65597;51.520;-0.224;2023-04-26T01:08:28;10;8;
76679;PMS5003;65597;51.520;-0.224;2023-04-26T01:10:54;6;6;
76679;PMS5003;65597;51.520;-0.224;2023-04-26T01:13:19;6;6;
76679;PMS5003;65597;51.520;-0.224;2023-04-26T01:15:45;8;6;
76679;PMS5003;65597;51.520;-0.224;2023-04-26T01:18:10;5;5;
76679;PMS5003;65597;51.520;-0.224;2023-04-26T01:20:36;7;6;
76679;PMS5003;65597;51.520;-0.224;2023-04-26T01:23:01;7;7;
76679;PMS5003;65597;51.520;-0.224;2023-04-26T01:25:27;6;6;
76679;PMS5003;65597;51.520;-0.224;2023-04-26T01:27:53;5;4;
76679;PMS5003;65597;51.520;-0.224;2023-04-26T01:30:17;6;5;
76679;PMS5003;65597;51.520;-0.224;2023-04-26T01:32:43;6;6;
76679;PMS5003;65597;51.520;-0.224;2023-04-26T01:35:08;5;5;
76679;PMS5003;65597;51.520;-0.224;2023-04-26T01:37:34;5;5;
76679;PMS5003;65597;51.520;-0.224;2023-04-26T01:40:01;8;7;
76679;PMS5003;65597;51.520;-0.224;2023-04-26T01:42:25;6;5;
76679;PMS5003;65597;51.520;-0.224;2023-04-26T01:44:50;8;7;
76679;PMS5003;65597;51.520;-0.224;2023-04-26T01:47:16;7;6;
76679;PMS5003;65597;51.520;-0.224;2023-04-26T01:49:41;5;5;
76679;PMS5003;65597;51.520;-0.224;2023-04-26T01:52:07;6;4;
76679;PMS5003;65597;51.520;-0.224;2023-04-26T01:54:32;7;7;
76679;PMS5003;65597;51.520;-0.224;2023-04-26T01:56:57;5;5;
76679;PMS5003;65597;51.520;-0.224;2023-04-26T01:59:23;7;6;
76679;PMS5003;65597;51.520;-0.224;2023-04-26T02:01:48;9;7;
76679;PMS5003;65597;51.520;-0.224;2023-04-26T02:04:15;7;7;
76679;PMS5003;65597;51.520;-0.224;2023-04-26T02:06:39;6;5;
76679;PMS5003;65597;51.520;-0.224;2023-04-26T02:09:05;6;5;
76679;PMS5003;65597;51.520;-0.224;2023-04-26T02:11:30;9;7;
76679;PMS5003;65597;51.520;-0.224;2023-04-26T02:13:56;6;5;
76679;PMS5003;65597;51.520;-0.224;2023-04-26T02:16:23;5;5;
76679;PMS5003;65597;51.520;-0.224;2023-04-26T02:18:47;7;6;
76679;PMS5003;65597;51.520;-0.224;2023-04-26T02:21:12;8;5;
76679;PMS5003;65597;51.520;-0.224;2023-04-26T02:23:37;6;6;
76679;PMS5003;65597;51.520;-0.224;2023-04-26T02:26:03;6;5;
76679;PMS5003;65597;51.520;-0.224;2023-04-26T02:28:28;7;5;
76679;PMS5003;65597;51.520;-0.224;2023-04-26T02:30:54;6;6;
76679;PMS5003;65597;51.520;-0.224;2023-04-26T02:33:19;5;5;
76679;PMS5003;65597;51.520;-0.224;2023-04-26T02:35:44;9;7;
76679;PMS5003;65597;51.520;-0.224;2023-04-26T02:38:09;6;5;
76679;PMS5003;65597;51.520;-0.224;2023-04-26T02:40:35;4;4;
76679;PMS5003;65597;51.520;-0.224;2023-04-26T02:43:00;6;6;
76679;PMS5003;65597;51.520;-0.224;2023-04-26T02:45:26;6;5;
76679;PMS5003;65597;51.520;-0.224;2023-04-26T02:47:51;8;6;
76679;PMS5003;65597;51.520;-0.224;2023-04-26T02:50:16;6;5;
76679;PMS5003;65597;51.520;-0.224;2023-04-26T02:52:43;5;5;
76679;PMS5003;65597;51.520;-0.224;2023-04-26T02:55:08;7;7;
76679;PMS5003;65597;51.520;-0.224;2023-04-26T02:57:33;6;6;
76679;PMS5003;65597;51.520;-0.224;2023-04-26T02:59:58;7;7;
76679;PMS5003;65597;51.520;-0.224;2023-04-26T03:02:24;6;6;
76679;PMS5003;65597;51.520;-0.224;2023-04-26T03:04:50;4;4;
76679;PMS5003;65597;51.520;-0.224;2023-04-26T03:07:15;6;4;
76679;PMS5003;65597;51.520;-0.224;2023-04-26T03:09:40;6;6;
76679;PMS5003;65597;51.520;-0.224;2023-04-26T03:12:06;7;5;
76679;PMS5003;65597;51.520;-0.224;2023-04-26T03:14:31;8;7;
76679;PMS5003;65597;51.520;-0.224;2023-04-26T03:16:58;5;4;
76679;PMS5003;65597;51.520;-0.224;2023-04-26T03:19:22;6;6;
76679;PMS5003;65597;51.520;-0.224;2023-04-26T03:21:47;5;5;
76679;PMS5003;65597;51.520;-0.224;2023-04-26T03:24:13;4;4;
76679;PMS5003;65597;51.520;-0.224;2023-04-26T03:26:38;5;5;
76679;PMS5003;65597;51.520;-0.224;2023-04-26T03:29:04;7;5;
76679;PMS5003;65597;51.520;-0.224;2023-04-26T03:31:29;5;5;
76679;PMS5003;65597;51.520;-0.224;2023-04-26T03:33:55;6;6;
76679;PMS5003;65597;51.520;-0.224;2023-04-26T03:36:20;5;5;
76679;PMS5003;65597;51.520;-0.224;2023-04-26T03:38:46;6;5;
76679;PMS5003;65597;51.520;-0.224;2023-04-26T03:41:12;5;4;
76679;PMS5003;65597;51.520;-0.224;2023-04-26T03:43:37;5;5;
76679;PMS5003;65597;51.520;-0.224;2023-04-26T03:46:02;5;4;
76679;PMS5003;65597;51.520;-0.224;2023-04-26T03:48:28;8;6;
76679;PMS5003;65597;51.520;-0.224;2023-04-26T03:50:53;5;5;
76679;PMS5003;65597;51.520;-0.224;2023-04-26T03:53:19;5;5;
76679;PMS5003;65597;51.520;-0.224;2023-04-26T03:55:44;11;7;
76679;PMS5003;65597;51.520;-0.224;2023-04-26T03:58:10;7;4;
76679;PMS5003;65597;51.520;-0.224;2023-04-26T04:00:35;5;5;
76679;PMS5003;65597;51.520;-0.224;2023-04-26T04:03:01;3;3;
76679;PMS5003;65597;51.520;-0.224;2023-04-26T04:05:26;7;5;
76679;PMS5003;65597;51.520;-0.224;2023-04-26T04:07:52;6;6;
76679;PMS5003;65597;51.520;-0.224;2023-04-26T04:10:17;6;5;
76679;PMS5003;65597;51.520;-0.224;2023-04-26T04:12:43;4;4;
76679;PMS5003;65597;51.520;-0.224;2023-04-26T04:15:09;7;5;
76679;PMS5003;65597;51.520;-0.224;2023-04-26T04:17:34;6;5;
76679;PMS5003;65597;51.520;-0.224;2023-04-26T04:19:59;7;6;
76679;PMS5003;65597;51.520;-0.224;2023-04-26T04:22:24;6;6;
76679;PMS5003;65597;51.520;-0.224;2023-04-26T04:24:50;7;6;
76679;PMS5003;65597;51.520;-0.224;2023-04-26T04:27:15;8;6;
76679;PMS5003;65597;51.520;-0.224;2023-04-26T04:29:42;6;6;
76679;PMS5003;65597;51.520;-0.224;2023-04-26T04:32:06;4;4;
76679;PMS5003;65597;51.520;-0.224;2023-04-26T04:34:33;8;7;
76679;PMS5003;65597;51.520;-0.224;2023-04-26T04:36:57;7;5;
76679;PMS5003;65597;51.520;-0.224;2023-04-26T04:39:23;6;6;
76679;PMS5003;65597;51.520;-0.224;2023-04-26T04:41:50;6;6;
76679;PMS5003;65597;51.520;-0.224;2023-04-26T04:44:14;7;7;
76679;PMS5003;65597;51.520;-0.224;2023-04-26T04:46:39;6;6;
76679;PMS5003;65597;51.520;-0.224;2023-04-26T04:49:04;6;6;
76679;PMS5003;65597;51.520;-0.224;2023-04-26T04:51:30;6;6;
76679;PMS5003;65597;51.520;-0.224;2023-04-26T04:53:57;4;4;
76679;PMS5003;65597;51.520;-0.224;2023-04-26T04:56:21;6;5;
76679;PMS5003;65597;51.520;-0.224;2023-04-26T04:58:46;6;5;
76679;PMS5003;65597;51.520;-0.224;2023-04-26T05:01:12;8;7;
76679;PMS5003;65597;51.520;-0.224;2023-04-26T05:03:37;7;6;
76679;PMS5003;65597;51.520;-0.224;2023-04-26T05:06:03;9;7;
76679;PMS5003;65597;51.520;-0.224;2023-04-26T05:08:28;8;6;
76679;PMS5003;65597;51.520;-0.224;2023-04-26T05:10:54;6;5;
76679;PMS5003;65597;51.520;-0.224;2023-04-26T05:13:19;7;6;
76679;PMS5003;65597;51.520;-0.224;2023-04-26T05:15:44;7;7;
76679;PMS5003;65597;51.520;-0.224;2023-04-26T05:18:11;10;7;
76679;PMS5003;65597;51.520;-0.224;2023-04-26T05:20:35;7;7;
76679;PMS5003;65597;51.520;-0.224;2023-04-26T05:23:01;7;6;
76679;PMS5003;65597;51.520;-0.224;2023-04-26T05:25:26;7;6;
76679;PMS5003;65597;51.520;-0.224;2023-04-26T05:27:52;7;7;
76679;PMS5003;65597;51.520;-0.224;2023-04-26T05:30:17;6;5;
76679;PMS5003;65597;51.520;-0.224;2023-04-26T05:32:43;5;4;
76679;PMS5003;65597;51.520;-0.224;2023-04-26T05:35:08;7;7;
76679;PMS5003;65597;51.520;-0.224;2023-04-26T05:37:34;7;7;
76679;PMS5003;65597;51.520;-0.224;2023-04-26T05:39:59;7;5;
76679;PMS5003;65597;51.520;-0.224;2023-04-26T05:42:26;6;6;
76679;PMS5003;65597;51.520;-0.224;2023-04-26T05:44:50;6;5;
76679;PMS5003;65597;51.520;-0.224;2023-04-26T05:47:15;9;6;
76679;PMS5003;65597;51.520;-0.224;2023-04-26T05:49:41;6;4;
76679;PMS5003;65597;51.520;-0.224;2023-04-26T05:52:06;6;5;
76679;PMS5003;65597;51.520;-0.224;2023-04-26T05:54:33;5;4;
76679;PMS5003;65597;51.520;-0.224;2023-04-26T05:56:57;7;7;
76679;PMS5003;65597;51.520;-0.224;2023-04-26T05:59:23;8;6;
76679;PMS5003;65597;51.520;-0.224;2023-04-26T06:01:48;8;7;
76679;PMS5003;65597;51.520;-0.224;2023-04-26T06:04:14;9;6;
76679;PMS5003;65597;51.520;-0.224;2023-04-26T06:06:39;8;7;
76679;PMS5003;65597;51.520;-0.224;2023-04-26T06:09:05;7;6;
76679;PMS5003;65597;51.520;-0.224;2023-04-26T06:11:30;6;5;
76679;PMS5003;65597;51.520;-0.224;2023-04-26T06:13:56;7;7;
76679;PMS5003;65597;51.520;-0.224;2023-04-26T06:16:21;8;8;
76679;PMS5003;65597;51.520;-0.224;2023-04-26T06:18:47;8;6;
76679;PMS5003;65597;51.520;-0.224;2023-04-26T06:21:12;4;4;
76679;PMS5003;65597;51.520;-0.224;2023-04-26T06:23:37;6;6;
76679;PMS5003;65597;51.520;-0.224;2023-04-26T06:26:03;8;7;
76679;PMS5003;65597;51.520;-0.224;2023-04-26T06:28:28;6;6;
76679;PMS5003;65597;51.520;-0.224;2023-04-26T06:30:55;8;8;
76679;PMS5003;65597;51.520;-0.224;2023-04-26T06:33:19;9;7;
76679;PMS5003;65597;51.520;-0.224;2023-04-26T06:35:44;8;7;
76679;PMS5003;65597;51.520;-0.224;2023-04-26T06:38:10;7;7;
76679;PMS5003;65597;51.520;-0.224;2023-04-26T06:40:35;6;6;
76679;PMS5003;65597;51.520;-0.224;2023-04-26T06:43:01;6;6;
76679;PMS5003;65597;51.520;-0.224;2023-04-26T06:45:26;7;7;
76679;PMS5003;65597;51.520;-0.224;2023-04-26T06:47:52;15;11;
76679;PMS5003;65597;51.520;-0.224;2023-04-26T06:50:17;6;5;
76679;PMS5003;65597;51.520;-0.224;2023-04-26T06:52:42;6;5;
76679;PMS5003;65597;51.520;-0.224;2023-04-26T06:55:08;9;7;
76679;PMS5003;65597;51.520;-0.224;2023-04-26T06:57:33;7;6;
76679;PMS5003;65597;51.520;-0.224;2023-04-26T06:59:59;8;7;
76679;PMS5003;65597;51.520;-0.224;2023-04-26T07:02:24;7;6;
76679;PMS5003;65597;51.520;-0.224;2023-04-26T07:04:50;7;6;
76679;PMS5003;65597;51.520;-0.224;2023-04-26T07:07:15;7;6;
76679;PMS5003;65597;51.520;-0.224;2023-04-26T07:09:41;7;5;
76679;PMS5003;65597;51.520;-0.224;2023-04-26T07:12:06;7;7;
76679;PMS5003;65597;51.520;-0.224;2023-04-26T07:14:31;8;7;
76679;PMS5003;65597;51.520;-0.224;2023-04-26T07:16:57;6;6;
76679;PMS5003;65597;51.520;-0.224;2023-04-26T07:19:24;6;6;
76679;PMS5003;65597;51.520;-0.224;2023-04-26T07:21:48;6;6;
76679;PMS5003;65597;51.520;-0.224;2023-04-26T07:24:13;7;7;
76679;PMS5003;65597;51.520;-0.224;2023-04-26T07:26:39;8;6;
76679;PMS5003;65597;51.520;-0.224;2023-04-26T07:29:04;6;6;
76679;PMS5003;65597;51.520;-0.224;2023-04-26T07:31:30;7;6;
76679;PMS5003;65597;51.520;-0.224;2023-04-26T07:33:55;8;6;
76679;PMS5003;65597;51.520;-0.224;2023-04-26T07:36:21;6;6;
76679;PMS5003;65597;51.520;-0.224;2023-04-26T07:38:46;4;4;
76679;PMS5003;65597;51.520;-0.224;2023-04-26T07:41:12;4;4;
76679;PMS5003;65597;51.520;-0.224;2023-04-26T07:43:39;7;6;
76679;PMS5003;65597;51.520;-0.224;2023-04-26T07:46:02;6;5;
76679;PMS5003;65597;51.520;-0.224;2023-04-26T07:48:28;8;6;
76679;PMS5003;65597;51.520;-0.224;2023-04-26T07:50:53;6;5;
76679;PMS5003;65597;51.520;-0.224;2023-04-26T07:53:18;7;6;
76679;PMS5003;65597;51.520;-0.224;2023-04-26T07:55:44;7;7;
76679;PMS5003;65597;51.520;-0.224;2023-04-26T07:58:09;6;6;
76679;PMS5003;65597;51.520;-0.224;2023-04-26T08:00:39;5;5;
76679;PMS5003;65597;51.520;-0.224;2023-04-26T08:03:00;6;6;
76679;PMS5003;65597;51.520;-0.224;2023-04-26T08:05:25;6;5;
76679;PMS5003;65597;51.520;-0.224;2023-04-26T08:07:51;13;9;
76679;PMS5003;65597;51.520;-0.224;2023-04-26T08:10:16;11;7;
76679;PMS5003;65597;51.520;-0.224;2023-04-26T08:12:42;7;7;
76679;PMS5003;65597;51.520;-0.224;2023-04-26T08:15:07;5;5;
76679;PMS5003;65597;51.520;-0.224;2023-04-26T08:17:32;7;5;
76679;PMS5003;65597;51.520;-0.224;2023-04-26T08:19:59;5;5;
76679;PMS5003;65597;51.520;-0.224;2023-04-26T08:22:24;6;5;
76679;PMS5003;65597;51.520;-0.224;2023-04-26T08:24:49;5;4;
76679;PMS5003;65597;51.520;-0.224;2023-04-26T08:27:14;5;5;
76679;PMS5003;65597;51.520;-0.224;2023-04-26T08:29:40;10;9;
76679;PMS5003;65597;51.520;-0.224;2023-04-26T08:32:05;9;7;
76679;PMS5003;65597;51.520;-0.224;2023-04-26T08:34:31;5;5;
76679;PMS5003;65597;51.520;-0.224;2023-04-26T08:36:56;6;5;
76679;PMS5003;65597;51.520;-0.224;2023-04-26T08:39:22;5;5;
76679;PMS5003;65597;51.520;-0.224;2023-04-26T08:41:48;5;5;
76679;PMS5003;65597;51.520;-0.224;2023-04-26T08:44:14;7;6;
76679;PMS5003;65597;51.520;-0.224;2023-04-26T08:46:39;10;9;
76679;PMS5003;65597;51.520;-0.224;2023-04-26T08:49:05;6;6;
76679;PMS5003;65597;51.520;-0.224;2023-04-26T08:51:29;7;5;
76679;PMS5003;65597;51.520;-0.224;2023-04-26T08:53:54;11;9;
76679;PMS5003;65597;51.520;-0.224;2023-04-26T08:56:21;7;7;
76679;PMS5003;65597;51.520;-0.224;2023-04-26T08:58:45;6;6;
76679;PMS5003;65597;51.520;-0.224;2023-04-26T09:01:12;7;6;
76679;PMS5003;65597;51.520;-0.224;2023-04-26T09:03:36;7;7;
76679;PMS5003;65597;51.520;-0.224;2023-04-26T09:06:01;7;7;
76679;PMS5003;65597;51.520;-0.224;2023-04-26T09:08:26;6;5;
76679;PMS5003;65597;51.520;-0.224;2023-04-26T09:10:53;7;7;
76679;PMS5003;65597;51.520;-0.224;2023-04-26T09:13:17;7;7;
76679;PMS5003;65597;51.520;-0.224;2023-04-26T09:15:44;9;8;
76679;PMS5003;65597;51.520;-0.224;2023-04-26T09:18:15;6;6;
76679;PMS5003;65597;51.520;-0.224;2023-04-26T09:20:35;7;7;
76679;PMS5003;65597;51.520;-0.224;2023-04-26T09:23:03;6;5;
76679;PMS5003;65597;51.520;-0.224;2023-04-26T09:25:27;5;5;
76679;PMS5003;65597;51.520;-0.224;2023-04-26T09:27:50;8;8;
76679;PMS5003;65597;51.520;-0.224;2023-04-26T09:30:16;6;6;
76679;PMS5003;65597;51.520;-0.224;2023-04-26T09:32:44;7;6;
76679;PMS5003;65597;51.520;-0.224;2023-04-26T09:35:06;8;7;
76679;PMS5003;65597;51.520;-0.224;2023-04-26T09:37:32;7;7;
76679;PMS5003;65597;51.520;-0.224;2023-04-26T09:39:57;11;7;
76679;PMS5003;65597;51.520;-0.224;2023-04-26T09:42:22;8;8;
76679;PMS5003;65597;51.520;-0.224;2023-04-26T09:44:49;9;8;
76679;PMS5003;65597;51.520;-0.224;2023-04-26T09:47:13;10;9;
76679;PMS5003;65597;51.520;-0.224;2023-04-26T09:49:43;7;7;
76679;PMS5003;65597;51.520;-0.224;2023-04-26T09:52:05;7;6;
76679;PMS5003;65597;51.520;-0.224;2023-04-26T09:54:39;9;9;
76679;PMS5003;65597;51.520;-0.224;2023-04-26T09:57:00;8;7;
76679;PMS5003;65597;51.520;-0.224;2023-04-26T09:59:20;9;9;
76679;PMS5003;65597;51.520;-0.224;2023-04-26T10:01:46;9;7;
76679;PMS5003;65597;51.520;-0.224;2023-04-26T10:04:11;7;7;
76679;PMS5003;65597;51.520;-0.224;2023-04-26T10:06:36;14;10;
76679;PMS5003;65597;51.520;-0.224;2023-04-26T10:09:01;8;8;
76679;PMS5003;65597;51.520;-0.224;2023-04-26T10:11:27;7;7;
76679;PMS5003;65597;51.520;-0.224;2023-04-26T10:13:52;27;26;
76679;PMS5003;65597;51.520;-0.224;2023-04-26T10:16:18;9;9;
76679;PMS5003;65597;51.520;-0.224;2023-04-26T10:18:43;8;8;
76679;PMS5003;65597;51.520;-0.224;2023-04-26T10:21:09;8;8;
76679;PMS5003;65597;51.520;-0.224;2023-04-26T10:23:34;9;9;
76679;PMS5003;65597;51.520;-0.224;2023-04-26T10:26:00;8;8;
76679;PMS5003;65597;51.520;-0.224;2023-04-26T10:30:54;9;8;
76679;PMS5003;65597;51.520;-0.224;2023-04-26T10:33:15;12;9;
76679;PMS5003;65597;51.520;-0.224;2023-04-26T10:38:07;9;9;
76679;PMS5003;65597;51.520;-0.224;2023-04-26T10:40:32;8;8;
76679;PMS5003;65597;51.520;-0.224;2023-04-26T10:45:24;8;7;
76679;PMS5003;65597;51.520;-0.224;2023-04-26T10:47:48;8;8;
76679;PMS5003;65597;51.520;-0.224;2023-04-26T10:50:13;12;12;
76679;PMS5003;65597;51.520;-0.224;2023-04-26T10:55:05;8;8;
76679;PMS5003;65597;51.520;-0.224;2023-04-26T11:04:51;9;9;
76679;PMS5003;65597;51.520;-0.224;2023-04-26T11:07:11;10;10;
76679;PMS5003;65597;51.520;-0.224;2023-04-26T11:09:37;12;11;
76679;PMS5003;65597;51.520;-0.224;2023-04-26T11:12:10;16;12;
76679;PMS5003;65597;51.520;-0.224;2023-04-26T11:14:27;19;18;
76679;PMS5003;65597;51.520;-0.224;2023-04-26T11:16:53;15;11;
76679;PMS5003;65597;51.520;-0.224;2023-04-26T11:19:18;9;9;
76679;PMS5003;65597;51.520;-0.224;2023-04-26T11:21:45;8;7;
76679;PMS5003;65597;51.520;-0.224;2023-04-26T11:24:09;9;8;
76679;PMS5003;65597;51.520;-0.224;2023-04-26T11:26:34;12;10;
76679;PMS5003;65597;51.520;-0.224;2023-04-26T11:29:00;13;12;
76679;PMS5003;65597;51.520;-0.224;2023-04-26T11:31:25;10;10;
76679;PMS5003;65597;51.520;-0.224;2023-04-26T11:33:52;12;11;
76679;PMS5003;65597;51.520;-0.224;2023-04-26T11:36:16;14;12;
76679;PMS5003;65597;51.520;-0.224;2023-04-26T11:38:41;12;12;
76679;PMS5003;65597;51.520;-0.224;2023-04-26T11:41:07;10;10;
76679;PMS5003;65597;51.520;-0.224;2023-04-26T11:43:33;9;9;
76679;PMS5003;65597;51.520;-0.224;2023-04-26T11:45:58;10;10;
76679;PMS5003;65597;51.520;-0.224;2023-04-26T11:48:23;12;10;
76679;PMS5003;65597;51.520;-0.224;2023-04-26T11:50:48;10;10;
76679;PMS5003;65597;51.520;-0.224;2023-04-26T11:53:14;10;9;
76679;PMS5003;65597;51.520;-0.224;2023-04-26T11:55:39;12;12;
76679;PMS5003;65597;51.520;-0.224;2023-04-26T11:58:09;15;13;
76679;PMS5003;65597;51.520;-0.224;2023-04-26T12:00:30;14;12;
76679;PMS5003;65597;51.520;-0.224;2023-04-26T12:02:55;11;10;
76679;PMS5003;65597;51.520;-0.224;2023-04-26T12:05:21;10;10;
76679;PMS5003;65597;51.520;-0.224;2023-04-26T12:07:48;11;9;
76679;PMS5003;65597;51.520;-0.224;2023-04-26T12:10:13;11;9;
76679;PMS5003;65597;51.520;-0.224;2023-04-26T12:12:37;11;9;
76679;PMS5003;65597;51.520;-0.224;2023-04-26T12:17:28;10;10;
76679;PMS5003;65597;51.520;-0.224;2023-04-26T12:19:53;9;9;
76679;PMS5003;65597;51.520;-0.224;2023-04-26T12:22:21;10;10;
76679;PMS5003;65597;51.520;-0.224;2023-04-26T12:24:43;12;11;
76679;PMS5003;65597;51.520;-0.224;2023-04-26T12:27:18;9;9;
76679;PMS5003;65597;51.520;-0.224;2023-04-26T12:29:34;10;10;
76679;PMS5003;65597;51.520;-0.224;2023-04-26T12:32:00;8;8;
76679;PMS5003;65597;51.520;-0.224;2023-04-26T12:34:25;12;11;
76679;PMS5003;65597;51.520;-0.224;2023-04-26T12:36:50;14;11;
76679;PMS5003;65597;51.520;-0.224;2023-04-26T12:39:16;10;10;
76679;PMS5003;65597;51.520;-0.224;2023-04-26T12:41:42;10;10;
76679;PMS5003;65597;51.520;-0.224;2023-04-26T12:44:06;8;8;
76679;PMS5003;65597;51.520;-0.224;2023-04-26T12:46:33;13;10;
76679;PMS5003;65597;51.520;-0.224;2023-04-26T12:48:57;11;9;
76679;PMS5003;65597;51.520;-0.224;2023-04-26T12:51:23;11;11;
76679;PMS5003;65597;51.520;-0.224;2023-04-26T12:53:48;8;8;
76679;PMS5003;65597;51.520;-0.224;2023-04-26T12:56:14;9;7;
76679;PMS5003;65597;51.520;-0.224;2023-04-26T12:58:40;12;10;
76679;PMS5003;65597;51.520;-0.224;2023-04-26T13:01:04;12;12;
76679;PMS5003;65597;51.520;-0.224;2023-04-26T13:03:29;12;11;
76679;PMS5003;65597;51.520;-0.224;2023-04-26T13:05:55;10;9;
76679;PMS5003;65597;51.520;-0.224;2023-04-26T13:08:20;11;11;
76679;PMS5003;65597;51.520;-0.224;2023-04-26T13:10:46;12;10;
76679;PMS5003;65597;51.520;-0.224;2023-04-26T13:13:11;13;12;
76679;PMS5003;65597;51.520;-0.224;2023-04-26T13:15:36;9;9;
76679;PMS5003;65597;51.520;-0.224;2023-04-26T13:18:02;10;10;
76679;PMS5003;65597;51.520;-0.224;2023-04-26T13:20:27;11;11;
76679;PMS5003;65597;51.520;-0.224;2023-04-26T13:22:53;12;12;
76679;PMS5003;65597;51.520;-0.224;2023-04-26T13:25:18;10;10;
76679;PMS5003;65597;51.520;-0.224;2023-04-26T13:27:43;10;10;
76679;PMS5003;65597;51.520;-0.224;2023-04-26T13:30:09;13;10;
76679;PMS5003;65597;51.520;-0.224;2023-04-26T13:32:34;10;9;
76679;PMS5003;65597;51.520;-0.224;2023-04-26T13:35:00;13;12;
76679;PMS5003;65597;51.520;-0.224;2023-04-26T13:37:25;13;12;
76679;PMS5003;65597;51.520;-0.224;2023-04-26T13:39:50;16;12;
76679;PMS5003;65597;51.520;-0.224;2023-04-26T13:42:15;8;8;
76679;PMS5003;65597;51.520;-0.224;2023-04-26T13:44:41;9;9;
76679;PMS5003;65597;51.520;-0.224;2023-04-26T13:47:07;11;8;
76679;PMS5003;65597;51.520;-0.224;2023-04-26T13:49:31;9;9;
76679;PMS5003;65597;51.520;-0.224;2023-04-26T13:51:57;9;8;
76679;PMS5003;65597;51.520;-0.224;2023-04-26T13:54:22;12;9;
76679;PMS5003;65597;51.520;-0.224;2023-04-26T13:56:47;11;10;
76679;PMS5003;65597;51.520;-0.224;2023-04-26T13:59:12;9;9;
76679;PMS5003;65597;51.520;-0.224;2023-04-26T14:01:37;12;11;
76679;PMS5003;65597;51.520;-0.224;2023-04-26T14:04:03;9;8;
76679;PMS5003;65597;51.520;-0.224;2023-04-26T14:06:28;15;11;
76679;PMS5003;65597;51.520;-0.224;2023-04-26T14:08:54;11;11;
76679;PMS5003;65597;51.520;-0.224;2023-04-26T14:11:21;9;8;
76679;PMS5003;65597;51.520;-0.224;2023-04-26T14:13:45;13;10;
76679;PMS5003;65597;51.520;-0.224;2023-04-26T14:16:10;9;9;
76679;PMS5003;65597;51.520;-0.224;2023-04-26T14:18:36;8;8;
76679;PMS5003;65597;51.520;-0.224;2023-04-26T14:21:01;12;10;
76679;PMS5003;65597;51.520;-0.224;2023-04-26T14:23:28;9;9;
76679;PMS5003;65597;51.520;-0.224;2023-04-26T14:25:52;11;10;
76679;PMS5003;65597;51.520;-0.224;2023-04-26T14:28:17;7;7;
76679;PMS5003;65597;51.520;-0.224;2023-04-26T14:30:42;8;7;
76679;PMS5003;65597;51.520;-0.224;2023-04-26T14:33:08;9;9;
76679;PMS5003;65597;51.520;-0.224;2023-04-26T14:35:34;9;8;
76679;PMS5003;65597;51.520;-0.224;2023-04-26T14:37:59;9;8;
76679;PMS5003;65597;51.520;-0.224;2023-04-26T14:40:24;10;9;
76679;PMS5003;65597;51.520;-0.224;2023-04-26T14:42:49;9;9;
76679;PMS5003;65597;51.520;-0.224;2023-04-26T14:45:15;11;10;
76679;PMS5003;65597;51.520;-0.224;2023-04-26T14:47:40;10;10;
76679;PMS5003;65597;51.520;-0.224;2023-04-26T14:50:06;8;8;
76679;PMS5003;65597;51.520;-0.224;2023-04-26T14:52:32;13;9;
76679;PMS5003;65597;51.520;-0.224;2023-04-26T14:54:56;12;10;
76679;PMS5003;65597;51.520;-0.224;2023-04-26T14:57:22;10;9;
76679;PMS5003;65597;51.520;-0.224;2023-04-26T14:59:47;10;10;
76679;PMS5003;65597;51.520;-0.224;2023-04-26T15:02:12;8;8;
76679;PMS5003;65597;51.520;-0.224;2023-04-26T15:04:43;8;8;
76679;PMS5003;65597;51.520;-0.224;2023-04-26T15:07:03;11;10;
76679;PMS5003;65597;51.520;-0.224;2023-04-26T15:09:28;11;10;
76679;PMS5003;65597;51.520;-0.224;2023-04-26T15:11:54;9;8;
76679;PMS5003;65597;51.520;-0.224;2023-04-26T15:14:19;15;11;
76679;PMS5003;65597;51.520;-0.224;2023-04-26T15:16:44;9;8;
76679;PMS5003;65597;51.520;-0.224;2023-04-26T15:19:09;9;9;
76679;PMS5003;65597;51.520;-0.224;2023-04-26T15:21:40;12;9;
76679;PMS5003;65597;51.520;-0.224;2023-04-26T15:24:03;8;7;
76679;PMS5003;65597;51.520;-0.224;2023-04-26T15:26:26;16;10;
76679;PMS5003;65597;51.520;-0.224;2023-04-26T15:28:51;10;9;
76679;PMS5003;65597;51.520;-0.224;2023-04-26T15:31:17;15;12;
76679;PMS5003;65597;51.520;-0.224;2023-04-26T15:33:43;9;9;
76679;PMS5003;65597;51.520;-0.224;2023-04-26T15:36:08;12;8;
76679;PMS5003;65597;51.520;-0.224;2023-04-26T15:38:33;9;9;
76679;PMS5003;65597;51.520;-0.224;2023-04-26T15:40:58;9;9;
76679;PMS5003;65597;51.520;-0.224;2023-04-26T15:43:24;9;7;
76679;PMS5003;65597;51.520;-0.224;2023-04-26T15:45:49;11;10;
76679;PMS5003;65597;51.520;-0.224;2023-04-26T15:48:15;8;8;
76679;PMS5003;65597;51.520;-0.224;2023-04-26T15:50:40;9;8;
76679;PMS5003;65597;51.520;-0.224;2023-04-26T15:53:05;11;10;
76679;PMS5003;65597;51.520;-0.224;2023-04-26T15:55:31;11;9;
76679;PMS5003;65597;51.520;-0.224;2023-04-26T15:57:56;11;11;
76679;PMS5003;65597;51.520;-0.224;2023-04-26T16:00:23;11;11;
76679;PMS5003;65597;51.520;-0.224;2023-04-26T16:02:47;12;11;
76679;PMS5003;65597;51.520;-0.224;2023-04-26T16:05:12;13;12;
76679;PMS5003;65597;51.520;-0.224;2023-04-26T16:07:37;10;10;
76679;PMS5003;65597;51.520;-0.224;2023-04-26T16:10:03;10;10;
76679;PMS5003;65597;51.520;-0.224;2023-04-26T16:12:28;12;11;
76679;PMS5003;65597;51.520;-0.224;2023-04-26T16:14:54;14;12;
76679;PMS5003;65597;51.520;-0.224;2023-04-26T16:17:19;15;11;
76679;PMS5003;65597;51.520;-0.224;2023-04-26T16:19:45;15;12;
76679;PMS5003;65597;51.520;-0.224;2023-04-26T16:22:10;10;9;
76679;PMS5003;65597;51.520;-0.224;2023-04-26T16:24:35;11;10;
76679;PMS5003;65597;51.520;-0.224;2023-04-26T16:27:01;10;10;
76679;PMS5003;65597;51.520;-0.224;2023-04-26T16:29:26;10;10;
76679;PMS5003;65597;51.520;-0.224;2023-04-26T16:31:52;13;10;